Edgard, Louisiana
Current Conditions -  °F | °C
As of 11:15 AM on Saturday 25 Oct 2014 (Local Time) from K1L0 Reporting Station
Clear Clear  
Wind Chill: 76°   Ceiling: Unl
Heat Index: 76°   Visibility: 10mi
Dew Point: 51°   Wind: 5mph
Humidity: 41%   Direction: 60°ENE
Pressure: 30.17"   Gusts: NA
Location:  30.04°N, 90.56°W
Report Text: K1L0 251615Z AUTO 06004KT 10SM CLR 24/10 A3017 RMK AO2 T02420103
Loading
Personal Weather Stations






























Interactive Weather Map
Tropical Storm Tracking
New forecast layout! Learn more

10-Day Weather Forecast

Advertisements
Track Severe Weather on mobile